createdAt,value
2022-08-30T00:01:17.083Z,6.50
2022-08-30T00:03:47.248Z,6.70
2022-08-30T00:06:19.863Z,8.50
2022-08-30T00:08:51.927Z,8.20
2022-08-30T00:11:25.760Z,8.80
2022-08-30T00:13:56.139Z,8.20
2022-08-30T00:16:27.331Z,8.60
2022-08-30T00:18:56.334Z,6.00
2022-08-30T00:21:24.479Z,6.70
2022-08-30T00:23:52.449Z,7.60
2022-08-30T00:26:20.475Z,8.20
2022-08-30T00:28:51.324Z,8.20
2022-08-30T00:31:19.261Z,8.50
2022-08-30T00:33:47.283Z,8.80
2022-08-30T00:36:16.483Z,8.80
2022-08-30T00:38:44.417Z,8.20
2022-08-30T00:41:12.529Z,5.20
2022-08-30T00:43:44.730Z,6.70
2022-08-30T00:46:12.593Z,6.50
2022-08-30T00:48:43.991Z,7.40
2022-08-30T00:51:14.865Z,8.00
2022-08-30T00:53:48.905Z,8.50
2022-08-30T00:56:18.525Z,8.70
2022-08-30T00:58:51.114Z,8.60
2022-08-30T01:01:24.704Z,8.40
2022-08-30T01:03:53.932Z,5.30
2022-08-30T01:06:24.384Z,6.30
2022-08-30T01:09:03.401Z,7.30
2022-08-30T01:11:36.410Z,7.90
2022-08-30T01:14:07.323Z,8.10
2022-08-30T01:16:39.894Z,8.80
2022-08-30T01:19:37.013Z,8.10
2022-08-30T01:22:24.163Z,7.80
2022-08-30T01:24:56.622Z,5.30
2022-08-30T01:27:28.888Z,6.00
2022-08-30T01:30:00.391Z,6.80
2022-08-30T01:35:02.518Z,8.30
2022-08-30T01:37:33.578Z,8.80
2022-08-30T01:40:02.849Z,9.60
2022-08-30T01:42:33.057Z,9.70
2022-08-30T01:45:00.867Z,6.60
2022-08-30T01:47:30.378Z,7.30
2022-08-30T01:49:58.847Z,7.70
2022-08-30T01:52:27.685Z,8.00
2022-08-30T01:54:55.616Z,8.50
2022-08-30T01:57:27.188Z,9.00
2022-08-30T01:59:57.765Z,8.30
2022-08-30T02:02:29.470Z,8.20
2022-08-30T02:05:05.359Z,5.00
2022-08-30T02:07:33.583Z,5.70
2022-08-30T02:10:01.506Z,6.60
2022-08-30T02:12:33.712Z,7.30
2022-08-30T02:15:02.964Z,7.80
2022-08-30T02:17:30.861Z,7.50
2022-08-30T02:20:05.019Z,7.60
2022-08-30T02:22:33.161Z,7.40
2022-08-30T02:25:03.302Z,5.20
2022-08-30T02:27:33.901Z,6.10
2022-08-30T02:30:10.234Z,6.50
2022-08-30T02:32:38.175Z,6.60
2022-08-30T02:35:06.777Z,6.40
2022-08-30T02:37:37.738Z,7.00
2022-08-30T02:40:10.336Z,6.70
2022-08-30T02:42:46.125Z,4.50
2022-08-30T02:45:15.818Z,5.60
2022-08-30T02:47:47.067Z,5.70
2022-08-30T02:50:18.317Z,6.60
2022-08-30T02:52:48.364Z,6.90
2022-08-30T02:55:17.262Z,6.90
2022-08-30T02:57:45.409Z,6.70
2022-08-30T03:00:17.091Z,4.40
2022-08-30T03:05:14.761Z,5.60
2022-08-30T03:07:43.427Z,6.30
2022-08-30T03:10:13.976Z,6.60
2022-08-30T03:12:43.055Z,7.00
2022-08-30T03:15:13.705Z,7.00
2022-08-30T03:17:42.541Z,4.70
2022-08-30T03:20:15.631Z,5.10
2022-08-30T03:22:43.429Z,6.10
2022-08-30T03:25:15.823Z,6.70
2022-08-30T03:27:43.732Z,7.70
2022-08-30T03:30:13.267Z,8.00
2022-08-30T03:32:42.073Z,9.00
2022-08-30T03:35:17.134Z,7.50
2022-08-30T03:37:49.938Z,8.80
2022-08-30T03:40:26.025Z,10.40
2022-08-30T03:42:56.196Z,11.20
2022-08-30T03:45:24.632Z,11.60
2022-08-30T03:47:52.834Z,11.00
2022-08-30T03:50:20.752Z,11.50
2022-08-30T03:52:49.422Z,6.70
2022-08-30T03:55:20.139Z,8.00
2022-08-30T03:57:51.051Z,9.60
2022-08-30T04:00:22.522Z,9.80
2022-08-30T04:02:51.618Z,10.70
2022-08-30T04:05:22.711Z,11.80
2022-08-30T04:07:50.676Z,11.40
2022-08-30T04:10:21.425Z,6.80
2022-08-30T04:12:51.372Z,8.00
2022-08-30T04:15:21.025Z,7.70
2022-08-30T04:17:53.900Z,8.00
2022-08-30T04:20:22.798Z,8.80
2022-08-30T04:22:54.737Z,8.60
2022-08-30T04:25:22.689Z,8.60
2022-08-30T04:27:50.731Z,4.80
2022-08-30T04:30:18.802Z,5.50
2022-08-30T04:32:48.366Z,6.10
2022-08-30T04:35:19.208Z,7.20
2022-08-30T04:37:50.359Z,6.80
2022-08-30T04:40:19.833Z,6.90
2022-08-30T04:42:54.660Z,6.80
2022-08-30T04:45:25.056Z,7.00
2022-08-30T04:47:56.374Z,4.20
2022-08-30T04:50:28.218Z,4.80
2022-08-30T04:52:56.060Z,5.40
2022-08-30T04:55:29.025Z,5.40
2022-08-30T04:58:00.941Z,6.00
2022-08-30T05:00:33.227Z,5.80
2022-08-30T05:03:02.060Z,6.20
2022-08-30T05:05:42.955Z,5.90
2022-08-30T05:08:16.125Z,5.50
2022-08-30T05:10:54.361Z,3.60
2022-08-30T05:13:35.488Z,4.10
2022-08-30T05:16:08.151Z,4.00
2022-08-30T05:18:37.942Z,4.70
2022-08-30T05:21:09.799Z,4.60
2022-08-30T05:23:42.875Z,4.60
2022-08-30T05:26:14.979Z,4.20
2022-08-30T05:28:43.891Z,4.40
2022-08-30T05:31:22.264Z,4.10
2022-08-30T05:33:51.598Z,4.30
2022-08-30T05:36:22.261Z,4.20
2022-08-30T05:38:54.825Z,4.60
2022-08-30T05:41:28.966Z,4.60
2022-08-30T05:43:59.231Z,4.30
2022-08-30T05:49:08.038Z,3.70
2022-08-30T05:51:42.955Z,4.00
2022-08-30T05:54:16.969Z,3.80
2022-08-30T05:56:51.161Z,3.50
2022-08-30T05:59:19.411Z,3.40
2022-08-30T06:01:48.715Z,3.10
2022-08-30T06:04:17.729Z,2.70
2022-08-30T06:06:48.628Z,2.90
2022-08-30T06:11:50.745Z,2.20
2022-08-30T06:14:18.789Z,2.70
2022-08-30T06:16:48.109Z,3.00
2022-08-30T06:19:17.691Z,3.10
2022-08-30T06:21:51.788Z,3.00
2022-08-30T06:24:27.791Z,2.80
2022-08-30T06:27:08.431Z,2.70
2022-08-30T06:29:40.984Z,2.60
2022-08-30T06:32:09.669Z,2.80
2022-08-30T06:34:41.430Z,2.90
2022-08-30T06:37:09.389Z,2.70
2022-08-30T06:39:37.271Z,2.50
2022-08-30T06:42:05.989Z,2.70
2022-08-30T06:44:36.376Z,2.60
2022-08-30T06:47:08.551Z,2.60
2022-08-30T06:49:36.609Z,3.00
2022-08-30T06:52:05.089Z,2.70
2022-08-30T06:54:33.489Z,2.80
2022-08-30T06:57:04.449Z,2.80
2022-08-30T06:59:34.301Z,2.70
2022-08-30T07:02:03.533Z,2.70
2022-08-30T07:04:34.089Z,2.70
2022-08-30T07:07:02.255Z,2.40
2022-08-30T07:12:04.550Z,2.10
2022-08-30T07:14:37.890Z,2.60
2022-08-30T07:17:32.604Z,2.40
2022-08-30T07:20:06.490Z,2.50
2022-08-30T07:22:34.690Z,2.50
2022-08-30T07:25:03.270Z,2.40
2022-08-30T07:27:36.009Z,2.10
2022-08-30T07:30:06.010Z,2.30
2022-08-30T07:32:34.350Z,2.00
2022-08-30T07:35:02.371Z,2.20
2022-08-30T07:37:33.031Z,2.30
2022-08-30T07:40:01.205Z,2.00
2022-08-30T07:42:31.990Z,2.20
2022-08-30T07:45:03.769Z,2.00
2022-08-30T07:47:38.469Z,2.30
2022-08-30T07:50:07.971Z,2.00
2022-08-30T07:55:10.490Z,2.20
2022-08-30T07:57:38.621Z,2.20
2022-08-30T08:00:09.049Z,1.90
2022-08-30T08:02:43.009Z,2.10
2022-08-30T08:05:17.059Z,2.00
2022-08-30T08:07:47.101Z,2.20
2022-08-30T08:10:16.978Z,2.30
2022-08-30T08:12:46.818Z,2.10
2022-08-30T08:15:14.862Z,2.10
2022-08-30T08:17:45.852Z,2.30
2022-08-30T08:20:20.345Z,2.00
2022-08-30T08:22:51.180Z,2.40
2022-08-30T08:25:22.470Z,2.10
2022-08-30T08:30:27.903Z,2.00
2022-08-30T08:32:58.317Z,1.70
2022-08-30T08:35:29.289Z,2.10
2022-08-30T08:38:01.690Z,2.30
2022-08-30T08:40:33.583Z,2.10
2022-08-30T08:43:09.530Z,2.00
2022-08-30T08:45:49.593Z,2.00
2022-08-30T08:48:45.531Z,2.20
2022-08-30T08:51:40.030Z,2.00
2022-08-30T08:54:22.229Z,2.20
2022-08-30T08:56:52.730Z,2.10
2022-08-30T08:59:21.009Z,2.30
2022-08-30T09:01:52.209Z,2.50
2022-08-30T09:04:29.020Z,2.40
2022-08-30T09:07:11.292Z,2.10
2022-08-30T09:09:46.349Z,1.90
2022-08-30T09:12:21.249Z,2.00
2022-08-30T09:14:55.815Z,2.10
2022-08-30T09:17:24.516Z,2.10
2022-08-30T09:19:56.429Z,2.00
2022-08-30T09:22:38.446Z,1.90
2022-08-30T09:25:12.660Z,2.10
2022-08-30T09:27:48.660Z,2.10
2022-08-30T09:30:24.467Z,2.00
2022-08-30T09:32:57.931Z,1.70
2022-08-30T09:35:38.611Z,2.10
2022-08-30T09:38:15.693Z,1.70
2022-08-30T09:40:47.965Z,1.60
2022-08-30T09:43:21.102Z,1.90
2022-08-30T09:46:09.621Z,1.80
2022-08-30T09:48:44.991Z,2.00
2022-08-30T09:51:14.015Z,1.90
2022-08-30T09:56:52.082Z,2.10
2022-08-30T09:59:40.581Z,1.60
2022-08-30T10:02:39.970Z,2.40
2022-08-30T10:05:26.839Z,2.00
2022-08-30T10:08:03.975Z,1.80
2022-08-30T10:10:51.908Z,2.20
2022-08-30T10:13:50.373Z,2.20
2022-08-30T10:16:36.663Z,2.30
2022-08-30T10:19:39.223Z,2.40
2022-08-30T10:22:33.940Z,2.00
2022-08-30T10:25:24.718Z,2.10
2022-08-30T10:28:02.878Z,2.00
2022-08-30T10:30:38.429Z,2.30
2022-08-30T10:33:19.820Z,2.00
2022-08-30T10:36:02.280Z,2.20
2022-08-30T10:39:05.139Z,2.10
2022-08-30T10:41:46.731Z,2.40
2022-08-30T10:47:01.932Z,2.20
2022-08-30T10:49:36.966Z,2.20
2022-08-30T10:52:15.469Z,2.10
2022-08-30T10:54:50.989Z,1.80
2022-08-30T10:57:20.330Z,2.10
2022-08-30T10:59:54.879Z,1.80
2022-08-30T11:02:33.300Z,2.40
2022-08-30T11:05:15.328Z,2.00
2022-08-30T11:08:01.179Z,2.00
2022-08-30T11:10:58.129Z,2.00
2022-08-30T11:13:31.960Z,2.00
2022-08-30T11:16:19.590Z,2.00
2022-08-30T11:18:58.608Z,2.40
2022-08-30T11:21:43.208Z,1.90
2022-08-30T11:24:21.121Z,2.20
2022-08-30T11:27:00.137Z,1.80
2022-08-30T11:29:36.071Z,1.70
2022-08-30T11:32:13.069Z,1.70
2022-08-30T11:34:53.588Z,1.50
2022-08-30T11:37:43.452Z,1.80
2022-08-30T11:40:36.171Z,2.00
2022-08-30T11:43:40.402Z,2.10
2022-08-30T11:46:29.683Z,1.80
2022-08-30T11:49:36.219Z,1.80
2022-08-30T11:52:41.569Z,1.60
2022-08-30T11:55:34.932Z,1.60
2022-08-30T11:58:22.168Z,1.80
2022-08-30T12:01:40.840Z,1.80
2022-08-30T12:04:15.282Z,1.70
2022-08-30T12:06:50.546Z,2.00
2022-08-30T12:09:26.711Z,1.90
2022-08-30T12:12:03.309Z,1.70
2022-08-30T12:14:36.168Z,1.80
2022-08-30T12:17:32.291Z,1.90
2022-08-30T12:20:01.129Z,1.90
2022-08-30T12:22:38.309Z,1.70
2022-08-30T12:25:18.548Z,2.20
2022-08-30T12:28:20.449Z,1.70
2022-08-30T12:31:07.048Z,1.80
2022-08-30T12:33:48.290Z,1.60
2022-08-30T12:36:37.538Z,1.80
2022-08-30T12:39:19.580Z,1.60
2022-08-30T12:41:57.949Z,1.90
2022-08-30T12:44:30.221Z,1.80
2022-08-30T12:47:03.608Z,2.00
2022-08-30T12:49:42.690Z,1.60
2022-08-30T12:52:25.768Z,1.90
2022-08-30T12:55:19.565Z,1.70
2022-08-30T12:58:00.773Z,1.80
2022-08-30T13:00:34.084Z,1.80
2022-08-30T13:03:30.119Z,1.70
2022-08-30T13:05:59.520Z,2.00
2022-08-30T13:08:47.119Z,1.80
2022-08-30T13:11:33.762Z,1.70
2022-08-30T13:14:33.100Z,1.80
2022-08-30T13:17:23.759Z,1.50
2022-08-30T13:20:06.503Z,1.90
2022-08-30T13:22:36.592Z,2.00
2022-08-30T13:25:08.669Z,1.80
2022-08-30T13:27:43.981Z,1.70
2022-08-30T13:30:16.658Z,2.00
2022-08-30T13:32:45.879Z,2.20
2022-08-30T13:35:15.681Z,1.70
2022-08-30T13:37:49.464Z,1.60
2022-08-30T13:40:25.771Z,1.80
2022-08-30T13:42:54.460Z,1.60
2022-08-30T13:45:43.418Z,1.50
2022-08-30T13:48:25.024Z,1.70
2022-08-30T13:50:57.504Z,1.70
2022-08-30T13:56:15.364Z,1.80
2022-08-30T13:58:45.032Z,2.00
2022-08-30T14:01:16.469Z,2.10
2022-08-30T14:06:34.352Z,2.10
2022-08-30T14:09:05.309Z,1.60
2022-08-30T14:11:35.472Z,1.90
2022-08-30T14:14:32.326Z,1.80
2022-08-30T14:16:54.253Z,2.20
2022-08-30T14:19:22.333Z,2.00
2022-08-30T14:21:50.435Z,2.30
2022-08-30T14:24:21.587Z,2.50
2022-08-30T14:26:54.769Z,2.40
2022-08-30T14:32:00.418Z,1.90
2022-08-30T14:34:32.789Z,1.80
2022-08-30T14:37:03.675Z,1.90
2022-08-30T14:39:32.913Z,1.90
2022-08-30T14:42:03.450Z,2.00
2022-08-30T14:44:55.211Z,2.10
2022-08-30T14:47:28.784Z,1.80
2022-08-30T14:50:02.527Z,2.50
2022-08-30T14:52:32.443Z,2.40
2022-08-30T14:55:08.853Z,2.00
2022-08-30T14:57:38.959Z,1.90
2022-08-30T15:00:11.225Z,3.60
2022-08-30T15:02:39.656Z,2.80
2022-08-30T15:05:12.289Z,2.90
2022-08-30T15:07:45.424Z,2.20
2022-08-30T15:10:19.989Z,2.20
2022-08-30T15:12:54.039Z,2.30
2022-08-30T15:15:23.664Z,2.40
2022-08-30T15:17:58.087Z,2.20
2022-08-30T15:20:30.457Z,2.20
2022-08-30T15:22:58.657Z,2.20
2022-08-30T15:25:29.820Z,2.00
2022-08-30T15:27:58.657Z,2.40
2022-08-30T15:30:26.737Z,2.20
2022-08-30T15:32:57.337Z,2.20
2022-08-30T15:35:25.378Z,1.90
2022-08-30T15:37:56.017Z,2.20
2022-08-30T15:40:28.620Z,2.30
2022-08-30T15:42:56.897Z,2.00
2022-08-30T15:45:27.579Z,2.40
2022-08-30T15:47:55.698Z,2.10
2022-08-30T15:50:24.737Z,2.60
2022-08-30T15:52:53.278Z,2.20
2022-08-30T15:55:21.301Z,2.60
2022-08-30T15:57:50.024Z,1.90
2022-08-30T16:00:19.629Z,2.30
2022-08-30T16:02:52.121Z,2.40
2022-08-30T16:05:21.899Z,2.00
2022-08-30T16:07:55.132Z,2.20
2022-08-30T16:10:23.399Z,2.30
2022-08-30T16:12:51.357Z,2.00
2022-08-30T16:15:20.471Z,2.20
2022-08-30T16:17:51.298Z,2.30
2022-08-30T16:20:19.934Z,2.20
2022-08-30T16:22:48.457Z,2.20
2022-08-30T16:25:23.261Z,2.50
2022-08-30T16:27:53.838Z,2.20
2022-08-30T16:30:22.278Z,2.30
2022-08-30T16:32:50.718Z,2.00
2022-08-30T16:35:21.837Z,2.20
2022-08-30T16:37:50.018Z,2.00
2022-08-30T16:40:24.610Z,1.90
2022-08-30T16:42:56.619Z,2.00
2022-08-30T16:45:27.693Z,2.10
2022-08-30T16:47:59.949Z,2.30
2022-08-30T16:50:27.798Z,2.30
2022-08-30T16:52:59.538Z,2.10
2022-08-30T16:55:28.237Z,2.40
2022-08-30T16:57:58.777Z,2.20
2022-08-30T17:00:28.118Z,1.80
2022-08-30T17:03:00.098Z,2.30
2022-08-30T17:05:34.157Z,2.10
2022-08-30T17:08:03.388Z,2.50
2022-08-30T17:10:33.481Z,3.40
2022-08-30T17:13:02.657Z,4.00
2022-08-30T17:15:33.937Z,5.40
2022-08-30T17:18:04.990Z,5.20
2022-08-30T17:23:12.437Z,3.90
2022-08-30T17:25:45.296Z,3.10
2022-08-30T17:28:13.597Z,3.10
2022-08-30T17:30:44.071Z,2.70
2022-08-30T17:35:49.237Z,3.10
2022-08-30T17:38:19.313Z,3.10
2022-08-30T17:40:48.365Z,2.70
2022-08-30T17:43:16.897Z,3.20
2022-08-30T17:45:44.937Z,2.70
2022-08-30T17:48:20.678Z,3.00
2022-08-30T17:51:00.598Z,2.60
2022-08-30T17:53:32.072Z,2.70
2022-08-30T17:56:05.297Z,2.60
2022-08-30T17:58:39.599Z,2.30
2022-08-30T18:01:19.312Z,2.20
2022-08-30T18:03:57.138Z,2.00
2022-08-30T18:06:36.517Z,3.30
2022-08-30T18:09:11.817Z,1.90
2022-08-30T18:11:40.816Z,1.70
2022-08-30T18:14:14.777Z,1.80
2022-08-30T18:16:53.302Z,1.90
2022-08-30T18:19:30.937Z,2.10
2022-08-30T18:21:59.737Z,1.80
2022-08-30T18:24:39.549Z,1.70
2022-08-30T18:28:17.589Z,1.90
2022-08-30T18:30:45.497Z,1.90
2022-08-30T18:33:14.757Z,2.20
2022-08-30T18:38:36.138Z,2.40
2022-08-30T18:41:08.051Z,2.70
2022-08-30T18:43:37.677Z,3.70
2022-08-30T18:46:09.478Z,4.40
2022-08-30T18:48:39.821Z,5.30
2022-08-30T18:51:21.659Z,4.90
2022-08-30T20:24:27.445Z,2.70
